createdAt,value
2018-12-16T00:02:02.295Z,-0.24
2018-12-16T00:04:29.967Z,-0.31
2018-12-16T00:06:57.331Z,-0.06
2018-12-16T00:09:24.708Z,-0.12
2018-12-16T00:11:52.491Z,-0.19
2018-12-16T00:14:20.480Z,-0.17
2018-12-16T00:16:48.371Z,-0.24
2018-12-16T00:19:15.989Z,-0.16
2018-12-16T00:21:43.617Z,-0.12
2018-12-16T00:24:11.186Z,0.08
2018-12-16T00:26:50.182Z,0.03
2018-12-16T00:29:17.761Z,0.01
2018-12-16T00:31:45.387Z,-0.07
2018-12-16T00:34:12.991Z,-0.15
2018-12-16T00:36:40.557Z,-0.12
2018-12-16T00:39:08.248Z,0.00
2018-12-16T00:41:36.106Z,-0.14
2018-12-16T00:44:04.079Z,-0.20
2018-12-16T00:46:31.689Z,-0.13
2018-12-16T00:48:59.135Z,0.01
2018-12-16T00:51:26.751Z,0.09
2018-12-16T00:53:54.107Z,-0.05
2018-12-16T00:56:21.692Z,-0.18
2018-12-16T00:58:49.383Z,-0.25
2018-12-16T01:01:16.821Z,-0.23
2018-12-16T01:03:44.772Z,-0.16
2018-12-16T01:06:12.421Z,-0.10
2018-12-16T01:08:40.085Z,-0.06
2018-12-16T01:11:07.790Z,-0.01
2018-12-16T01:13:35.381Z,-0.06
2018-12-16T01:16:03.153Z,0.05
2018-12-16T01:18:30.933Z,0.04
2018-12-16T01:20:58.288Z,0.01
2018-12-16T01:23:26.019Z,0.08
2018-12-16T01:25:53.714Z,0.14
2018-12-16T01:28:21.391Z,0.18
2018-12-16T01:30:48.772Z,0.19
2018-12-16T01:33:16.836Z,0.32
2018-12-16T01:35:44.324Z,0.30
2018-12-16T01:38:12.000Z,0.23
2018-12-16T01:40:39.576Z,0.17
2018-12-16T01:43:07.141Z,0.07
2018-12-16T01:45:34.467Z,0.17
2018-12-16T01:48:02.092Z,0.20
2018-12-16T01:50:29.496Z,0.21
2018-12-16T01:52:57.080Z,0.15
2018-12-16T01:55:24.664Z,0.17
2018-12-16T01:57:52.228Z,0.29
2018-12-16T02:00:20.076Z,0.27
2018-12-16T02:02:48.012Z,0.19
2018-12-16T02:05:15.624Z,0.21
2018-12-16T02:07:43.435Z,0.25
2018-12-16T02:10:11.270Z,0.26
2018-12-16T02:12:38.620Z,0.27
2018-12-16T02:15:06.504Z,0.19
2018-12-16T02:17:33.892Z,0.16
2018-12-16T02:20:01.457Z,0.21
2018-12-16T02:22:28.778Z,0.19
2018-12-16T02:24:56.576Z,0.18
2018-12-16T02:27:24.112Z,0.19
2018-12-16T02:29:51.792Z,0.28
2018-12-16T02:32:19.482Z,0.21
2018-12-16T02:34:47.268Z,0.10
2018-12-16T02:37:14.737Z,0.09
2018-12-16T02:39:42.459Z,0.06
2018-12-16T02:42:10.116Z,0.18
2018-12-16T02:44:37.700Z,0.19
2018-12-16T02:47:05.462Z,0.15
2018-12-16T02:49:33.088Z,0.13
2018-12-16T02:52:00.841Z,0.17
2018-12-16T02:54:28.449Z,0.23
2018-12-16T02:56:56.009Z,0.16
2018-12-16T02:59:24.880Z,0.12
2018-12-16T03:01:52.650Z,0.20
2018-12-16T03:04:19.947Z,0.15
2018-12-16T03:06:47.580Z,0.23
2018-12-16T03:09:15.444Z,0.23
2018-12-16T03:11:43.163Z,0.19
2018-12-16T03:14:10.773Z,0.21
2018-12-16T03:16:39.665Z,0.21
2018-12-16T03:19:07.233Z,0.27
2018-12-16T03:21:34.948Z,0.23
2018-12-16T03:24:02.751Z,0.13
2018-12-16T03:26:35.875Z,0.05
2018-12-16T03:29:00.413Z,0.22
2018-12-16T03:31:28.115Z,0.27
2018-12-16T03:33:55.713Z,0.24
2018-12-16T03:36:23.189Z,0.15
2018-12-16T03:38:50.925Z,0.14
2018-12-16T03:41:18.559Z,0.25
2018-12-16T03:43:46.091Z,0.23
2018-12-16T03:46:13.652Z,0.26
2018-12-16T03:48:41.313Z,0.27
2018-12-16T03:51:08.610Z,0.20
2018-12-16T03:53:36.087Z,0.26
2018-12-16T03:56:03.846Z,0.23
2018-12-16T03:58:31.302Z,0.23
2018-12-16T04:00:58.941Z,0.18
2018-12-16T04:03:26.613Z,0.26
2018-12-16T04:05:54.024Z,0.31
2018-12-16T04:08:21.666Z,0.38
2018-12-16T04:10:49.099Z,0.26
2018-12-16T04:13:16.647Z,0.34
2018-12-16T04:15:44.210Z,0.36
2018-12-16T04:18:11.783Z,0.39
2018-12-16T04:20:39.247Z,0.29
2018-12-16T04:23:06.858Z,0.45
2018-12-16T04:25:34.312Z,0.38
2018-12-16T04:28:01.753Z,0.33
2018-12-16T04:30:29.336Z,0.33
2018-12-16T04:32:56.831Z,0.24
2018-12-16T04:35:24.548Z,0.30
2018-12-16T04:37:51.994Z,0.43
2018-12-16T04:40:19.645Z,0.47
2018-12-16T04:42:47.377Z,0.44
2018-12-16T04:45:15.096Z,0.33
2018-12-16T04:50:09.218Z,0.30
2018-12-16T04:52:36.913Z,0.43
2018-12-16T04:55:05.021Z,0.44
2018-12-16T04:57:32.567Z,0.46
2018-12-16T05:00:00.271Z,0.39
2018-12-16T05:02:27.958Z,0.38
2018-12-16T05:04:55.596Z,0.49
2018-12-16T05:07:23.213Z,0.43
2018-12-16T05:09:50.515Z,0.26
2018-12-16T05:12:18.222Z,0.18
2018-12-16T05:14:46.003Z,-0.07
2018-12-16T05:17:13.530Z,-0.10
2018-12-16T05:19:41.219Z,-0.23
2018-12-16T05:22:08.762Z,-0.33
2018-12-16T05:24:36.504Z,-0.36
2018-12-16T05:27:04.036Z,-0.44
2018-12-16T05:29:31.635Z,-0.50
2018-12-16T05:31:59.162Z,-0.46
2018-12-16T05:34:26.766Z,-0.58
2018-12-16T05:36:54.507Z,-0.57
2018-12-16T05:39:22.180Z,-0.69
2018-12-16T05:41:49.718Z,-0.71
2018-12-16T05:44:17.539Z,-0.71
2018-12-16T05:46:45.264Z,-0.83
2018-12-16T05:49:13.024Z,-0.75
2018-12-16T05:51:40.450Z,-0.83
2018-12-16T05:54:08.041Z,-0.86
2018-12-16T05:56:35.598Z,-0.87
2018-12-16T05:59:03.288Z,-0.81
2018-12-16T06:01:30.734Z,-0.75
2018-12-16T06:03:58.172Z,-0.70
2018-12-16T06:06:26.204Z,-0.66
2018-12-16T06:08:53.876Z,-0.76
2018-12-16T06:11:21.586Z,-0.70
2018-12-16T06:13:49.276Z,-0.62
2018-12-16T06:16:16.812Z,-0.67
2018-12-16T06:18:44.266Z,-0.61
2018-12-16T06:21:12.138Z,-0.61
2018-12-16T06:23:39.798Z,-0.57
2018-12-16T06:26:07.469Z,-0.61
2018-12-16T06:28:35.464Z,-0.60
2018-12-16T06:31:03.097Z,-0.60
2018-12-16T06:33:30.678Z,-0.56
2018-12-16T06:35:58.004Z,-0.53
2018-12-16T06:38:25.480Z,-0.45
2018-12-16T06:40:53.048Z,-0.41
2018-12-16T06:43:20.410Z,-0.38
2018-12-16T06:45:47.824Z,-0.35
2018-12-16T06:48:15.187Z,-0.32
2018-12-16T06:50:42.568Z,-0.27
2018-12-16T06:53:10.244Z,-0.36
2018-12-16T06:55:43.290Z,-0.35
2018-12-16T06:58:07.481Z,-0.29
2018-12-16T07:00:35.121Z,-0.27
2018-12-16T07:03:02.608Z,-0.32
2018-12-16T07:05:30.008Z,-0.30
2018-12-16T07:07:57.472Z,-0.30
2018-12-16T07:10:25.116Z,-0.28
2018-12-16T07:12:52.756Z,-0.26
2018-12-16T07:15:20.126Z,-0.23
2018-12-16T07:17:47.788Z,-0.19
2018-12-16T07:20:15.379Z,-0.16
2018-12-16T07:22:42.761Z,-0.13
2018-12-16T07:25:11.703Z,-0.09
2018-12-16T07:27:39.772Z,-0.13
2018-12-16T07:30:08.092Z,-0.23
2018-12-16T07:32:35.740Z,-0.25
2018-12-16T07:35:03.409Z,-0.30
2018-12-16T07:37:30.991Z,-0.20
2018-12-16T07:39:58.851Z,-0.20
2018-12-16T07:42:26.435Z,-0.27
2018-12-16T07:44:53.989Z,-0.24
2018-12-16T07:47:21.604Z,-0.22
2018-12-16T07:49:49.175Z,-0.27
2018-12-16T07:52:16.850Z,-0.19
2018-12-16T07:54:44.327Z,-0.21
2018-12-16T07:57:11.957Z,-0.21
2018-12-16T07:59:39.638Z,-0.19
2018-12-16T08:02:07.300Z,-0.14
2018-12-16T08:04:34.903Z,-0.14
2018-12-16T08:07:02.406Z,-0.06
2018-12-16T08:09:30.015Z,-0.02
2018-12-16T08:11:57.467Z,0.12
2018-12-16T08:14:25.151Z,0.07
2018-12-16T08:16:52.838Z,0.04
2018-12-16T08:19:20.679Z,0.05
2018-12-16T08:21:48.404Z,0.06
2018-12-16T08:24:22.957Z,0.17
2018-12-16T08:26:45.692Z,0.21
2018-12-16T08:29:13.362Z,0.18
2018-12-16T08:31:41.084Z,0.23
2018-12-16T08:34:08.828Z,0.33
2018-12-16T08:36:36.404Z,0.42
2018-12-16T08:39:06.397Z,0.49
2018-12-16T08:41:34.015Z,0.62
2018-12-16T08:44:01.779Z,0.71
2018-12-16T08:46:29.421Z,0.70
2018-12-16T08:48:56.817Z,0.69
2018-12-16T08:51:24.509Z,0.84
2018-12-16T08:53:52.033Z,0.95
2018-12-16T08:56:19.803Z,1.11
2018-12-16T08:58:47.447Z,1.33
2018-12-16T09:01:14.977Z,1.47
2018-12-16T09:03:43.005Z,1.66
2018-12-16T09:06:10.651Z,1.77
2018-12-16T09:08:38.461Z,1.82
2018-12-16T09:11:06.039Z,1.90
2018-12-16T09:13:33.811Z,1.99
2018-12-16T09:16:01.352Z,2.06
2018-12-16T09:18:29.079Z,2.04
2018-12-16T09:20:56.469Z,2.08
2018-12-16T09:23:24.027Z,2.01
2018-12-16T09:25:51.696Z,2.02
2018-12-16T09:28:19.394Z,2.12
2018-12-16T09:30:46.745Z,2.20
2018-12-16T09:33:14.431Z,2.35
2018-12-16T09:35:41.829Z,2.45
2018-12-16T09:38:09.553Z,2.48
2018-12-16T09:40:37.138Z,2.48
2018-12-16T09:43:04.767Z,2.59
2018-12-16T09:45:32.485Z,2.63
2018-12-16T09:48:00.615Z,2.67
2018-12-16T09:50:28.344Z,2.65
2018-12-16T09:52:55.945Z,2.61
2018-12-16T09:55:23.591Z,2.57
2018-12-16T09:57:51.133Z,2.47
2018-12-16T10:00:18.836Z,2.35
2018-12-16T10:02:46.439Z,2.20
2018-12-16T10:05:14.187Z,2.23
2018-12-16T10:07:41.753Z,2.26
2018-12-16T10:10:10.840Z,2.32
2018-12-16T10:12:38.523Z,2.39
2018-12-16T10:15:06.938Z,2.43
2018-12-16T10:17:34.281Z,2.46
2018-12-16T10:20:02.098Z,2.63
2018-12-16T10:22:29.578Z,2.84
2018-12-16T10:24:57.248Z,3.05
2018-12-16T10:27:24.803Z,3.15
2018-12-16T10:29:52.399Z,3.20
2018-12-16T10:32:20.170Z,3.25
2018-12-16T10:34:47.755Z,3.30
2018-12-16T10:37:15.385Z,3.39
2018-12-16T10:39:43.563Z,3.44
2018-12-16T10:42:11.224Z,3.49
2018-12-16T10:44:38.895Z,3.49
2018-12-16T10:47:06.459Z,3.50
2018-12-16T10:49:34.114Z,3.52
2018-12-16T10:52:01.875Z,3.59
2018-12-16T10:54:29.744Z,3.63
2018-12-16T10:56:57.511Z,3.70
2018-12-16T10:59:24.868Z,3.65
2018-12-16T11:01:52.595Z,3.56
2018-12-16T11:04:20.083Z,3.48
2018-12-16T11:06:47.800Z,3.50
2018-12-16T11:09:15.797Z,3.47
2018-12-16T11:11:44.125Z,3.45
2018-12-16T11:14:11.782Z,3.41
2018-12-16T11:16:39.712Z,3.14
2018-12-16T11:19:07.360Z,2.98
2018-12-16T11:21:35.055Z,2.90
2018-12-16T11:24:02.880Z,2.89
2018-12-16T11:26:30.552Z,2.87
2018-12-16T11:28:58.304Z,2.87
2018-12-16T11:31:26.049Z,2.86
2018-12-16T11:33:53.758Z,2.75
2018-12-16T11:36:21.404Z,2.74
2018-12-16T11:38:49.298Z,2.85
2018-12-16T11:41:17.064Z,2.76
2018-12-16T11:43:45.547Z,2.67
2018-12-16T11:46:13.020Z,2.63
2018-12-16T11:48:40.686Z,2.65
2018-12-16T11:51:08.454Z,2.72
2018-12-16T11:53:36.087Z,2.77
2018-12-16T11:56:03.642Z,2.81
2018-12-16T11:58:31.319Z,2.83
2018-12-16T12:00:58.920Z,2.87
2018-12-16T12:03:26.589Z,2.95
2018-12-16T12:05:53.938Z,3.04
2018-12-16T12:08:21.573Z,3.13
2018-12-16T12:10:49.255Z,3.19
2018-12-16T12:13:16.848Z,3.19
2018-12-16T12:15:44.433Z,3.19
2018-12-16T12:18:12.156Z,3.23
2018-12-16T12:20:39.544Z,3.21
2018-12-16T12:23:07.354Z,3.25
2018-12-16T12:25:34.929Z,3.09
2018-12-16T12:28:02.376Z,2.89
2018-12-16T12:30:29.973Z,2.77
2018-12-16T12:32:57.353Z,2.78
2018-12-16T12:35:25.122Z,2.86
2018-12-16T12:37:52.795Z,2.96
2018-12-16T12:40:20.369Z,2.94
2018-12-16T12:42:48.057Z,2.99
2018-12-16T12:45:15.691Z,2.93
2018-12-16T12:47:43.305Z,2.91
2018-12-16T12:50:10.887Z,2.82
2018-12-16T12:52:38.537Z,2.81
2018-12-16T12:55:06.549Z,2.82
2018-12-16T12:57:34.144Z,2.88
2018-12-16T13:00:01.989Z,2.87
2018-12-16T13:02:29.697Z,2.78
2018-12-16T13:04:57.233Z,2.80
2018-12-16T13:07:25.151Z,2.86
2018-12-16T13:09:52.513Z,2.92
2018-12-16T13:12:20.148Z,2.96
2018-12-16T13:14:47.621Z,2.90
2018-12-16T13:17:15.215Z,2.96
2018-12-16T13:19:42.965Z,2.83
2018-12-16T13:22:10.693Z,2.66
2018-12-16T13:24:49.121Z,2.63
2018-12-16T13:27:16.964Z,2.63
2018-12-16T13:29:44.807Z,2.67
2018-12-16T13:32:12.439Z,2.72
2018-12-16T13:34:40.151Z,2.76
2018-12-16T13:37:07.937Z,2.78
2018-12-16T13:39:36.143Z,2.94
2018-12-16T13:42:03.970Z,2.90
2018-12-16T13:44:31.802Z,2.71
2018-12-16T13:46:59.847Z,2.62
2018-12-16T13:49:28.061Z,2.44
2018-12-16T13:51:55.665Z,2.40
2018-12-16T13:54:40.095Z,2.33
2018-12-16T13:57:07.794Z,2.31
2018-12-16T13:59:35.422Z,2.23
2018-12-16T14:02:02.825Z,2.23
2018-12-16T14:04:30.426Z,2.25
2018-12-16T14:06:57.922Z,2.25
2018-12-16T14:09:25.610Z,2.10
2018-12-16T14:11:53.191Z,1.97
2018-12-16T14:14:20.839Z,1.95
2018-12-16T14:16:48.446Z,1.92
2018-12-16T14:19:16.118Z,1.91
2018-12-16T14:21:43.884Z,1.90
2018-12-16T14:24:11.511Z,1.97
2018-12-16T14:26:39.558Z,2.10
2018-12-16T14:29:07.115Z,2.20
2018-12-16T14:31:34.721Z,2.14
2018-12-16T14:34:02.481Z,1.98
2018-12-16T14:36:30.156Z,1.93
2018-12-16T14:38:57.881Z,1.92
2018-12-16T14:41:25.485Z,1.93
2018-12-16T14:43:53.214Z,1.98
2018-12-16T14:46:20.741Z,1.93
2018-12-16T14:48:48.131Z,1.95
2018-12-16T14:51:15.843Z,1.99
2018-12-16T14:53:43.317Z,1.95
2018-12-16T14:56:10.998Z,1.95
2018-12-16T14:58:38.642Z,1.94
2018-12-16T15:01:06.377Z,1.93
2018-12-16T15:03:33.970Z,2.00
2018-12-16T15:06:01.283Z,1.96
2018-12-16T15:08:29.004Z,2.02
2018-12-16T15:10:56.787Z,1.97
2018-12-16T15:13:24.572Z,1.93
2018-12-16T15:15:52.345Z,1.93
2018-12-16T15:18:19.989Z,1.91
2018-12-16T15:20:47.426Z,1.88
2018-12-16T15:23:15.159Z,1.89
2018-12-16T15:25:42.721Z,1.90
2018-12-16T15:28:10.421Z,1.94
2018-12-16T15:30:37.847Z,1.93
2018-12-16T15:33:05.529Z,1.96
2018-12-16T15:35:32.889Z,1.98
2018-12-16T15:38:00.564Z,1.99
2018-12-16T15:40:28.505Z,2.01
2018-12-16T15:42:56.186Z,2.03
2018-12-16T15:45:23.989Z,2.02
2018-12-16T15:47:51.576Z,2.07
2018-12-16T15:50:19.382Z,2.09
2018-12-16T15:52:46.987Z,2.08
2018-12-16T15:55:14.562Z,2.09
2018-12-16T15:57:42.121Z,2.09
2018-12-16T16:00:10.279Z,2.08
2018-12-16T16:02:38.050Z,2.08
2018-12-16T16:05:06.061Z,2.16
2018-12-16T16:07:34.047Z,2.18
2018-12-16T16:10:01.833Z,2.23
2018-12-16T16:12:29.253Z,2.40
2018-12-16T16:14:56.946Z,2.54
2018-12-16T16:17:24.321Z,2.36
2018-12-16T16:19:51.991Z,2.19
2018-12-16T16:22:20.581Z,2.11
2018-12-16T16:24:48.402Z,2.12
2018-12-16T16:27:16.045Z,2.18
2018-12-16T16:29:43.810Z,2.12
2018-12-16T16:32:11.445Z,2.10
2018-12-16T16:34:39.229Z,2.07
2018-12-16T16:37:06.991Z,2.04
2018-12-16T16:39:34.723Z,2.04
2018-12-16T16:42:02.307Z,2.05
2018-12-16T16:44:29.964Z,2.05
2018-12-16T16:46:57.602Z,2.08
2018-12-16T16:49:25.261Z,2.14
2018-12-16T16:51:52.866Z,2.21
2018-12-16T16:54:20.707Z,2.12
2018-12-16T16:56:48.289Z,2.07
2018-12-16T16:59:16.051Z,2.05
2018-12-16T17:01:43.761Z,2.02
2018-12-16T17:04:11.180Z,2.03
2018-12-16T17:06:39.140Z,2.06
2018-12-16T17:09:07.708Z,2.09
2018-12-16T17:11:35.641Z,2.10
2018-12-16T17:14:03.454Z,2.09
2018-12-16T17:16:31.093Z,2.10
2018-12-16T17:18:59.721Z,2.09
2018-12-16T17:21:27.960Z,2.11
2018-12-16T17:23:55.574Z,2.13
2018-12-16T17:26:29.809Z,2.11
2018-12-16T17:28:53.092Z,2.14
2018-12-16T17:31:20.693Z,2.20
2018-12-16T17:33:48.386Z,2.25
2018-12-16T17:36:16.104Z,2.27
2018-12-16T17:38:43.729Z,2.37
2018-12-16T17:41:11.596Z,2.41
2018-12-16T17:43:39.390Z,2.35
2018-12-16T17:46:06.733Z,2.36
2018-12-16T17:48:34.364Z,2.36
2018-12-16T17:51:01.770Z,2.37
2018-12-16T17:53:29.502Z,2.32
2018-12-16T17:55:57.298Z,2.32
2018-12-16T17:58:25.392Z,2.32
2018-12-16T18:00:52.941Z,2.33
2018-12-16T18:03:20.560Z,2.33
2018-12-16T18:05:48.093Z,2.35
2018-12-16T18:08:15.813Z,2.37
2018-12-16T18:10:43.545Z,2.37
2018-12-16T18:13:11.173Z,2.39
2018-12-16T18:15:38.839Z,2.37
2018-12-16T18:18:06.428Z,2.37
2018-12-16T18:20:33.916Z,2.36
2018-12-16T18:23:01.612Z,2.37
2018-12-16T18:25:29.351Z,2.40
2018-12-16T18:27:56.736Z,2.44
2018-12-16T18:30:24.564Z,2.46
2018-12-16T18:32:52.168Z,2.47
2018-12-16T18:35:19.990Z,2.48
2018-12-16T18:37:48.037Z,2.50
2018-12-16T18:40:15.638Z,2.50
2018-12-16T18:42:43.398Z,2.51
2018-12-16T18:45:11.252Z,2.58
2018-12-16T18:47:38.896Z,2.60
2018-12-16T18:50:08.359Z,2.65
2018-12-16T18:52:35.992Z,2.60
2018-12-16T18:55:04.168Z,2.53
2018-12-16T18:57:32.355Z,2.50
2018-12-16T19:00:00.097Z,2.47
2018-12-16T19:02:27.771Z,2.48
2018-12-16T19:04:55.404Z,2.49
2018-12-16T19:07:23.222Z,2.49
2018-12-16T19:09:50.833Z,2.50
2018-12-16T19:12:18.520Z,2.53
2018-12-16T19:14:46.437Z,2.62
2018-12-16T19:17:14.101Z,2.67
2018-12-16T19:19:42.061Z,2.66
2018-12-16T19:22:09.837Z,2.56
2018-12-16T19:24:37.349Z,2.53
2018-12-16T19:27:05.069Z,2.51
2018-12-16T19:29:32.816Z,2.51
2018-12-16T19:32:00.443Z,2.52
2018-12-16T19:34:28.256Z,2.55
2018-12-16T19:36:55.977Z,2.59
2018-12-16T19:39:23.732Z,2.61
2018-12-16T19:41:51.335Z,2.62
2018-12-16T19:44:18.943Z,2.69
2018-12-16T19:46:46.564Z,2.75
2018-12-16T19:49:14.200Z,2.71
2018-12-16T19:51:41.885Z,2.74
2018-12-16T19:54:09.520Z,2.69
2018-12-16T19:56:36.975Z,2.69
2018-12-16T19:59:04.835Z,2.68
2018-12-16T20:01:32.409Z,2.69
2018-12-16T20:04:05.829Z,2.71
2018-12-16T20:06:43.450Z,2.65
2018-12-16T20:09:11.441Z,2.62
2018-12-16T20:11:39.551Z,2.66
2018-12-16T20:14:07.203Z,2.63
2018-12-16T20:16:34.953Z,2.64
2018-12-16T20:19:02.847Z,2.65
2018-12-16T20:21:30.427Z,2.66
2018-12-16T20:23:58.321Z,2.66
2018-12-16T20:26:25.987Z,2.65
2018-12-16T20:28:53.721Z,2.64
2018-12-16T20:31:21.695Z,2.65
2018-12-16T20:33:49.828Z,2.61
2018-12-16T20:36:17.756Z,2.66
2018-12-16T20:38:45.395Z,2.67
2018-12-16T20:41:13.037Z,2.67
2018-12-16T20:43:40.455Z,2.65
2018-12-16T20:46:08.207Z,2.66
2018-12-16T20:48:35.587Z,2.70
2018-12-16T20:51:03.325Z,2.74
2018-12-16T20:53:31.115Z,2.72
2018-12-16T20:55:58.839Z,2.73
2018-12-16T20:58:26.393Z,2.73
2018-12-16T21:00:54.105Z,2.74
2018-12-16T21:03:22.051Z,2.71
2018-12-16T21:05:49.644Z,2.70
2018-12-16T21:08:17.528Z,2.73
2018-12-16T21:10:45.101Z,2.75
2018-12-16T21:13:18.593Z,2.75
2018-12-16T21:15:51.918Z,2.79
2018-12-16T21:18:22.840Z,2.76
2018-12-16T21:20:50.926Z,2.72
2018-12-16T21:23:18.610Z,2.64
2018-12-16T21:25:46.348Z,2.65
2018-12-16T21:28:13.938Z,2.60
2018-12-16T21:30:41.317Z,2.60
2018-12-16T21:33:08.926Z,2.58
2018-12-16T21:35:36.345Z,2.53
2018-12-16T21:38:04.149Z,2.53
2018-12-16T21:40:31.829Z,2.54
2018-12-16T21:42:59.427Z,2.57
2018-12-16T21:50:25.649Z,2.66
2018-12-16T21:52:53.277Z,2.66
2018-12-16T21:55:20.898Z,2.67
2018-12-16T21:57:48.624Z,2.71
2018-12-16T22:00:16.299Z,2.69
2018-12-16T22:02:43.996Z,2.69
2018-12-16T22:05:13.131Z,2.73
2018-12-16T22:07:40.760Z,2.75
2018-12-16T22:10:08.376Z,2.75
2018-12-16T22:12:36.173Z,2.75
2018-12-16T22:15:04.514Z,2.71
2018-12-16T22:17:31.881Z,2.69
2018-12-16T22:19:59.614Z,2.70
2018-12-16T22:22:27.360Z,2.76
2018-12-16T22:24:55.024Z,2.82
2018-12-16T22:27:22.822Z,2.86
2018-12-16T22:29:50.524Z,2.91
2018-12-16T22:32:18.125Z,2.94
2018-12-16T22:34:45.788Z,2.96
2018-12-16T22:37:13.723Z,2.98
2018-12-16T22:39:41.483Z,2.98
2018-12-16T22:42:09.080Z,2.98
2018-12-16T22:44:36.854Z,3.01
2018-12-16T22:47:04.582Z,3.02
2018-12-16T22:49:32.558Z,3.05
2018-12-16T22:52:00.245Z,3.10
2018-12-16T22:54:28.090Z,3.10
2018-12-16T22:56:55.621Z,3.11
2018-12-16T22:59:23.047Z,3.10
2018-12-16T23:01:50.926Z,3.09
2018-12-16T23:04:18.424Z,3.09
2018-12-16T23:06:46.010Z,3.09
2018-12-16T23:09:13.628Z,3.05
2018-12-16T23:11:41.246Z,3.05
2018-12-16T23:14:08.876Z,3.08
2018-12-16T23:16:36.543Z,3.12
2018-12-16T23:19:04.278Z,3.14
2018-12-16T23:21:31.894Z,3.11
2018-12-16T23:23:59.724Z,3.12
2018-12-16T23:26:27.232Z,3.13
2018-12-16T23:28:54.910Z,3.13
2018-12-16T23:31:22.463Z,3.16
2018-12-16T23:33:50.120Z,3.18
2018-12-16T23:36:17.989Z,3.20
2018-12-16T23:38:45.621Z,3.22
2018-12-16T23:41:13.378Z,3.23
2018-12-16T23:43:41.039Z,3.24
2018-12-16T23:46:08.756Z,3.24
2018-12-16T23:48:36.470Z,3.25
2018-12-16T23:51:04.166Z,3.25
2018-12-16T23:53:31.841Z,3.23
2018-12-16T23:55:59.441Z,3.25
2018-12-16T23:58:27.043Z,3.28
